Time;durP1;ratioP1;P1;durP2;ratioP2;P2;SDS_P1;SDS_P2;PMS_P1;PMS_P2;Temp;Humidity;BMP_temperature;BMP_pressure;BME280_temperature;BME280_humidity;BME280_pressure;Samples;Min_cycle;Max_cycle;Signal;HPM_P1;HPM_P2
2023/02/04 00:00:07;;;;;;;;;;;;;;;5.82;67.54;98884.59;5131893;27;19924;-62
2023/02/04 00:02:37;;;;;;;;;;;;;;;5.81;68.12;98885.66;5124621;27;20305;-60
2023/02/04 00:05:06;;;;;;;;;;;;;;;5.82;68.36;98884.59;5134147;27;19930;-60
2023/02/04 00:07:34;;;;;;;;;;;;;;;5.87;67.98;98890.03;5132771;27;19924;-61
2023/02/04 00:10:04;;;;;;;;;;;;;;;5.93;67.80;98880.94;5129295;27;19934;-61
2023/02/04 00:12:33;;;;;;;;;;;;;;;5.98;67.74;98889.06;5121415;27;19935;-59
2023/02/04 00:15:01;;;;;;;;;;;;;;;5.89;68.07;98890.56;5130695;27;19927;-61
2023/02/04 00:17:32;;;;;;;;;;;;;;;5.83;68.27;98895.09;5127342;27;19928;-60
2023/02/04 00:20:00;;;;;;;;;;;;;;;5.84;68.40;98899.44;5140580;27;20409;-60
2023/02/04 00:22:28;;;;;;;;;;;;;;;5.94;67.74;98883.38;5124834;27;19923;-59
2023/02/04 00:24:57;;;;;;;;;;;;;;;5.85;68.44;98897.53;5127187;27;19923;-61
2023/02/04 00:27:26;;;;;;;;;;;;;;;5.86;68.30;98899.16;5094922;27;19923;-60
2023/02/04 00:29:55;;;;;;;;;;;;;;;5.89;68.01;98904.06;5128327;27;19924;-60
2023/02/04 00:32:23;;;;;;;;;;;;;;;5.96;68.06;98901.97;5111399;28;19931;-61
2023/02/04 00:34:52;;;;;;;;;;;;;;;5.90;67.72;98911.06;5104272;27;19978;-61
2023/02/04 00:37:20;;;;;;;;;;;;;;;5.82;68.50;98911.56;5111377;27;20022;-60
2023/02/04 00:39:48;;;;;;;;;;;;;;;5.85;68.13;98901.03;5117348;27;19969;-61
2023/02/04 00:42:16;;;;;;;;;;;;;;;5.83;67.67;98905.09;5125550;27;19931;-60
2023/02/04 00:44:46;;;;;;;;;;;;;;;5.84;67.67;98910.22;5111133;27;19927;-60
2023/02/04 00:47:14;;;;;;;;;;;;;;;5.87;67.53;98906.22;5107132;28;19924;-60
2023/02/04 00:50:08;;;;;;;;;;;;;;;5.88;67.32;98910.53;5112047;27;19923;-59
2023/02/04 00:52:37;;;;;;;;;;;;;;;5.91;66.47;98899.22;5095945;27;19931;-60
2023/02/04 00:55:06;;;;;;;;;;;;;;;5.81;67.26;98908.03;5117010;27;19923;-60
2023/02/04 00:57:35;;;;;;;;;;;;;;;5.78;67.00;98908.53;5112924;28;19923;-65
2023/02/04 01:00:05;;;;;;;;;;;;;;;5.81;67.16;98907.22;5114950;27;19955;-61
2023/02/04 01:02:34;;;;;;;;;;;;;;;5.93;66.59;98910.59;5100144;28;20022;-60
2023/02/04 01:05:03;;;;;;;;;;;;;;;5.88;66.25;98913.22;5127711;27;19923;-64
2023/02/04 01:07:31;;;;;;;;;;;;;;;5.85;66.75;98916.41;5107124;28;20360;-65
2023/02/04 01:09:59;;;;;;;;;;;;;;;5.83;66.94;98929.34;5116529;27;19931;-61
2023/02/04 01:12:27;;;;;;;;;;;;;;;5.83;66.53;98937.44;5110321;28;19924;-59
2023/02/04 01:14:55;;;;;;;;;;;;;;;5.77;66.49;98936.59;5105683;28;19923;-59
2023/02/04 01:17:31;;;;;;;;;;;;;;;5.80;66.58;98936.06;5111717;27;19923;-60
2023/02/04 01:19:59;;;;;;;;;;;;;;;5.82;66.57;98938.53;5120723;27;20369;-59
2023/02/04 01:22:27;;;;;;;;;;;;;;;5.74;67.19;98937.06;5105895;28;19930;-61
2023/02/04 01:24:55;;;;;;;;;;;;;;;5.80;66.41;98941.44;5096076;28;19977;-60
2023/02/04 01:27:40;;;;;;;;;;;;;;;5.76;66.08;98951.13;5115613;27;20384;-60
2023/02/04 01:30:09;;;;;;;;;;;;;;;5.75;66.89;98949.47;5104826;27;19928;-61
2023/02/04 01:32:38;;;;;;;;;;;;;;;5.69;66.70;98956.72;5096951;28;19928;-60
2023/02/04 01:35:08;;;;;;;;;;;;;;;5.73;66.52;98957.03;5115568;27;19923;-60
2023/02/04 01:37:38;;;;;;;;;;;;;;;5.67;65.59;98958.84;5110375;27;20334;-59
2023/02/04 01:40:06;;;;;;;;;;;;;;;5.66;66.22;98965.31;5111389;27;19924;-60
2023/02/04 01:42:34;;;;;;;;;;;;;;;5.62;65.76;98979.56;5103190;28;19989;-59
2023/02/04 01:45:05;;;;;;;;;;;;;;;5.59;65.39;98963.88;5106001;28;19934;-60
2023/02/04 01:47:34;;;;;;;;;;;;;;;5.69;65.48;98970.19;5097890;27;20422;-59
2023/02/04 01:50:10;;;;;;;;;;;;;;;5.60;65.45;98973.63;5107415;28;20373;-60
2023/02/04 01:52:38;;;;;;;;;;;;;;;5.54;65.95;98972.75;5108047;28;19930;-60
2023/02/04 01:55:10;;;;;;;;;;;;;;;5.54;65.71;98975.44;5110205;28;19924;-60
2023/02/04 01:57:38;;;;;;;;;;;;;;;5.64;64.95;98975.53;5102245;28;19924;-60
2023/02/04 02:00:09;;;;;;;;;;;;;;;5.62;64.92;98983.06;5114518;28;20338;-60
2023/02/04 02:02:40;;;;;;;;;;;;;;;5.56;64.72;98970.59;5108137;28;19924;-60
2023/02/04 02:05:10;;;;;;;;;;;;;;;5.61;64.11;98977.94;5104104;28;19999;-59
2023/02/04 02:07:39;;;;;;;;;;;;;;;5.59;63.96;98982.75;5116362;28;19924;-57
2023/02/04 02:10:07;;;;;;;;;;;;;;;5.52;63.27;98991.03;5103990;28;19924;-60
2023/02/04 02:12:36;;;;;;;;;;;;;;;5.52;62.60;98985.63;5104579;28;19935;-60
2023/02/04 02:15:04;;;;;;;;;;;;;;;5.55;62.06;98990.53;5107371;28;19924;-59
2023/02/04 02:20:26;;;;;;;;;;;;;;;5.48;61.54;98993.41;5093332;28;19924;-59
2023/02/04 02:22:58;;;;;;;;;;;;;;;5.52;60.46;98996.41;5120118;28;19924;-59
2023/02/04 02:25:28;;;;;;;;;;;;;;;5.51;60.35;98997.50;5110250;28;19924;-59
2023/02/04 02:27:56;;;;;;;;;;;;;;;5.52;60.66;98994.53;5104224;27;19924;-59
2023/02/04 02:30:24;;;;;;;;;;;;;;;5.48;61.03;98995.28;5121123;28;19931;-60
2023/02/04 02:32:52;;;;;;;;;;;;;;;5.45;61.58;98993.09;5094130;28;19935;-60
2023/02/04 02:35:20;;;;;;;;;;;;;;;5.49;61.60;98999.63;5108940;28;19923;-60
2023/02/04 02:37:49;;;;;;;;;;;;;;;5.53;62.25;99006.13;5105070;28;19924;-61
2023/02/04 02:40:17;;;;;;;;;;;;;;;5.44;63.47;99005.78;5101827;28;19977;-59
2023/02/04 02:42:47;;;;;;;;;;;;;;;5.48;64.08;99003.38;5101649;28;19931;-60
2023/02/04 02:45:21;;;;;;;;;;;;;;;5.44;64.93;99016.56;5102510;28;19928;-60
2023/02/04 02:47:49;;;;;;;;;;;;;;;5.47;65.34;99013.34;5105559;28;19928;-61
2023/02/04 02:50:20;;;;;;;;;;;;;;;5.47;65.38;99017.91;5100716;28;20430;-58
2023/02/04 02:52:49;;;;;;;;;;;;;;;5.37;65.32;99020.47;5123550;27;19935;-60
2023/02/04 02:55:18;;;;;;;;;;;;;;;5.44;64.75;99031.91;5104558;28;19924;-60
2023/02/04 02:57:48;;;;;;;;;;;;;;;5.41;64.08;99029.72;5104596;28;19927;-59
2023/02/04 03:00:17;;;;;;;;;;;;;;;5.36;64.97;99038.53;5110688;28;19955;-60
2023/02/04 03:02:46;;;;;;;;;;;;;;;5.30;63.57;99044.13;5101513;28;20397;-59
2023/02/04 03:05:14;;;;;;;;;;;;;;;5.34;63.31;99037.97;5108858;27;20380;-60
2023/02/04 03:07:42;;;;;;;;;;;;;;;5.41;62.44;99045.88;5111106;27;19928;-60
2023/02/04 03:10:10;;;;;;;;;;;;;;;5.44;62.39;99056.16;5097918;27;19924;-60
2023/02/04 03:12:39;;;;;;;;;;;;;;;5.38;62.12;99057.13;5109816;28;20276;-60
2023/02/04 03:15:08;;;;;;;;;;;;;;;5.28;62.94;99057.84;5114684;27;20400;-60
2023/02/04 03:17:36;;;;;;;;;;;;;;;5.32;61.69;99058.94;5110533;28;19936;-60
2023/02/04 03:20:06;;;;;;;;;;;;;;;5.32;61.97;99064.34;5105361;28;20015;-61
2023/02/04 03:22:34;;;;;;;;;;;;;;;5.26;61.74;99071.53;5108281;28;19955;-59
2023/02/04 03:25:02;;;;;;;;;;;;;;;5.17;61.77;99078.44;5125775;27;19936;-60
2023/02/04 03:27:30;;;;;;;;;;;;;;;5.21;61.57;99082.25;5105786;28;19924;-60
2023/02/04 03:29:58;;;;;;;;;;;;;;;5.16;61.90;99092.94;5105822;27;20285;-60
2023/02/04 03:32:28;;;;;;;;;;;;;;;5.24;61.70;99095.22;5108226;27;19955;-59
2023/02/04 03:34:56;;;;;;;;;;;;;;;5.22;61.96;99097.38;5110943;28;20031;-60
2023/02/04 03:37:24;;;;;;;;;;;;;;;5.17;62.09;99097.28;5123898;27;19930;-60
2023/02/04 03:39:53;;;;;;;;;;;;;;;5.11;62.71;99111.72;5108879;27;20431;-60
2023/02/04 03:42:21;;;;;;;;;;;;;;;5.11;63.00;99117.13;5111034;28;19977;-59
2023/02/04 03:44:49;;;;;;;;;;;;;;;5.15;62.75;99117.44;5112346;27;19939;-60
2023/02/04 03:47:18;;;;;;;;;;;;;;;5.18;62.41;99127.75;5124439;27;20042;-60
2023/02/04 03:50:12;;;;;;;;;;;;;;;5.28;61.96;99122.50;5129600;27;20372;-59
2023/02/04 03:52:41;;;;;;;;;;;;;;;5.21;62.31;99128.03;5125039;27;19946;-60
2023/02/04 03:55:09;;;;;;;;;;;;;;;5.15;63.19;99134.41;5124260;27;20284;-60
2023/02/04 03:57:37;;;;;;;;;;;;;;;5.07;63.71;99131.34;5126789;27;19950;-59
2023/02/04 04:00:06;;;;;;;;;;;;;;;5.04;63.81;99139.91;5128004;27;19924;-59
2023/02/04 04:02:38;;;;;;;;;;;;;;;5.03;64.05;99143.66;5119100;27;19923;-60
2023/02/04 04:05:07;;;;;;;;;;;;;;;4.94;64.91;99145.94;5127623;27;20026;-63
2023/02/04 04:07:35;;;;;;;;;;;;;;;4.97;64.80;99158.91;5108197;27;19927;-59
2023/02/04 04:10:05;;;;;;;;;;;;;;;5.09;64.92;99154.25;5128858;27;20410;-60
2023/02/04 04:12:33;;;;;;;;;;;;;;;5.07;64.65;99156.41;5133336;27;19931;-60
2023/02/04 04:15:02;;;;;;;;;;;;;;;5.07;64.77;99159.09;5142364;27;19923;-60
2023/02/04 04:17:30;;;;;;;;;;;;;;;5.08;65.03;99149.94;5121814;27;19923;-59
2023/02/04 04:19:58;;;;;;;;;;;;;;;4.95;65.94;99151.09;5132730;27;19980;-60
2023/02/04 04:22:26;;;;;;;;;;;;;;;4.99;65.73;99148.72;5132532;27;20325;-58
2023/02/04 04:24:54;;;;;;;;;;;;;;;4.89;65.68;99159.31;5100034;27;19928;-60
2023/02/04 04:27:24;;;;;;;;;;;;;;;4.88;66.58;99155.81;5131526;27;19930;-60
2023/02/04 04:29:53;;;;;;;;;;;;;;;4.86;66.17;99162.50;5123115;27;19929;-59
2023/02/04 04:32:21;;;;;;;;;;;;;;;4.88;66.32;99163.06;5127133;27;19923;-60
2023/02/04 04:34:49;;;;;;;;;;;;;;;4.83;66.58;99165.69;5118209;27;19923;-60
2023/02/04 04:37:17;;;;;;;;;;;;;;;4.86;66.68;99176.78;5121289;27;19935;-60
2023/02/04 04:39:45;;;;;;;;;;;;;;;4.97;66.35;99185.84;5120114;27;19923;-59
2023/02/04 04:42:13;;;;;;;;;;;;;;;5.01;66.45;99187.00;5115863;27;19924;-59
2023/02/04 04:44:42;;;;;;;;;;;;;;;4.95;66.32;99198.72;5123137;27;20406;-60
2023/02/04 04:47:14;;;;;;;;;;;;;;;4.89;66.29;99199.69;5115163;27;19924;-60
2023/02/04 04:50:07;;;;;;;;;;;;;;;4.94;66.39;99211.38;5099836;28;20674;-60
2023/02/04 04:52:35;;;;;;;;;;;;;;;4.95;66.51;99217.56;5110912;28;19930;-60
2023/02/04 04:55:04;;;;;;;;;;;;;;;4.97;66.35;99212.78;5101565;27;19969;-60
2023/02/04 04:57:33;;;;;;;;;;;;;;;4.87;66.72;99216.09;5105485;27;19966;-59
2023/02/04 05:00:03;;;;;;;;;;;;;;;4.88;67.03;99225.00;5097599;28;19928;-60
2023/02/04 05:02:30;;;;;;;;;;;;;;;4.92;67.35;99231.53;5102158;28;19935;-60
2023/02/04 05:04:59;;;;;;;;;;;;;;;4.91;67.46;99235.31;5120258;27;19924;-60
2023/02/04 05:07:28;;;;;;;;;;;;;;;4.86;67.04;99241.41;5119594;27;20384;-60
2023/02/04 05:09:56;;;;;;;;;;;;;;;4.87;67.33;99248.41;5105345;28;20375;-60
2023/02/04 05:12:24;;;;;;;;;;;;;;;4.81;67.89;99252.09;5108901;28;19946;-60
2023/02/04 05:14:52;;;;;;;;;;;;;;;4.74;67.77;99262.19;5108268;28;19958;-60
2023/02/04 05:17:45;;;;;;;;;;;;;;;4.80;67.88;99260.41;5117919;27;19923;-60
2023/02/04 05:20:15;;;;;;;;;;;;;;;4.83;67.02;99260.72;5100777;28;20387;-60
2023/02/04 05:22:43;;;;;;;;;;;;;;;4.76;67.52;99262.75;5104364;28;20322;-60
2023/02/04 05:25:11;;;;;;;;;;;;;;;4.84;67.59;99266.94;5107218;28;19923;-60
2023/02/04 05:27:39;;;;;;;;;;;;;;;4.72;67.34;99267.78;5102378;27;20373;-59
2023/02/04 05:30:09;;;;;;;;;;;;;;;4.80;67.35;99276.56;5106125;27;20043;-60
2023/02/04 05:32:37;;;;;;;;;;;;;;;4.77;67.85;99271.66;5102992;28;19924;-60
2023/02/04 05:35:05;;;;;;;;;;;;;;;4.79;67.62;99274.91;5115429;27;19928;-60
2023/02/04 05:37:35;;;;;;;;;;;;;;;4.77;67.68;99280.53;5108300;27;19924;-59
2023/02/04 05:40:04;;;;;;;;;;;;;;;4.87;68.10;99283.44;5108853;28;20326;-61
2023/02/04 05:42:31;;;;;;;;;;;;;;;4.82;68.45;99290.59;5101500;27;19931;-59
2023/02/04 05:45:02;;;;;;;;;;;;;;;4.80;67.98;99293.53;5116509;27;19931;-60
2023/02/04 05:47:29;;;;;;;;;;;;;;;4.91;68.46;99299.94;5122832;27;20384;-60
2023/02/04 05:50:02;;;;;;;;;;;;;;;4.78;68.83;99310.97;5127329;27;19923;-59
2023/02/04 05:52:32;;;;;;;;;;;;;;;4.83;69.39;99316.47;5125511;27;19931;-59
2023/02/04 05:55:01;;;;;;;;;;;;;;;4.65;69.85;99302.13;5132351;27;19927;-60
2023/02/04 05:57:29;;;;;;;;;;;;;;;4.53;70.18;99325.56;5119945;27;19930;-59
2023/02/04 05:59:57;;;;;;;;;;;;;;;4.52;70.98;99325.78;5131210;27;19923;-59
2023/02/04 06:02:26;;;;;;;;;;;;;;;4.48;71.11;99330.84;5120211;27;20375;-60
2023/02/04 06:04:54;;;;;;;;;;;;;;;4.52;71.12;99334.66;5130176;27;20394;-59
2023/02/04 06:07:21;;;;;;;;;;;;;;;4.37;72.21;99337.06;5120170;27;19988;-60
2023/02/04 06:09:50;;;;;;;;;;;;;;;4.31;72.41;99340.66;5134961;27;19964;-59
2023/02/04 06:12:19;;;;;;;;;;;;;;;4.36;71.96;99351.53;5127522;27;20264;-60
2023/02/04 06:14:47;;;;;;;;;;;;;;;4.36;71.65;99356.91;5134471;27;19927;-60
2023/02/04 06:17:15;;;;;;;;;;;;;;;4.35;72.35;99361.50;5125037;27;19935;-58
2023/02/04 06:20:07;;;;;;;;;;;;;;;4.33;72.62;99362.78;5127738;27;20441;-59
2023/02/04 06:22:35;;;;;;;;;;;;;;;4.35;72.64;99366.88;5131738;27;19942;-59
2023/02/04 06:25:03;;;;;;;;;;;;;;;4.36;72.46;99373.06;5112271;27;19934;-59
2023/02/04 06:27:33;;;;;;;;;;;;;;;4.45;72.49;99388.63;5133361;27;20343;-59
2023/02/04 06:30:01;;;;;;;;;;;;;;;4.51;72.29;99394.13;5127296;27;19923;-59
2023/02/04 06:32:28;;;;;;;;;;;;;;;4.45;72.65;99398.56;5131656;27;19924;-57
2023/02/04 06:34:56;;;;;;;;;;;;;;;4.32;71.87;99410.41;5114410;27;19924;-59
2023/02/04 06:37:25;;;;;;;;;;;;;;;4.05;71.68;99415.41;5126236;27;19954;-61
2023/02/04 06:39:56;;;;;;;;;;;;;;;3.91;71.81;99413.97;5113192;27;19959;-59
2023/02/04 06:42:24;;;;;;;;;;;;;;;3.86;71.71;99419.22;5116217;27;19991;-58
2023/02/04 06:44:54;;;;;;;;;;;;;;;3.89;71.07;99434.91;5104087;28;19985;-59
2023/02/04 06:47:22;;;;;;;;;;;;;;;3.83;71.32;99438.50;5129269;27;19928;-60
2023/02/04 06:50:17;;;;;;;;;;;;;;;3.77;70.86;99439.41;5108360;27;19931;-57
2023/02/04 06:52:46;;;;;;;;;;;;;;;3.80;72.19;99455.91;5128090;27;19923;-59
2023/02/04 06:55:14;;;;;;;;;;;;;;;3.84;71.99;99453.59;5138618;27;20429;-59
2023/02/04 06:57:42;;;;;;;;;;;;;;;3.88;71.63;99460.94;5114916;27;19932;-59
2023/02/04 07:00:21;;;;;;;;;;;;;;;3.91;72.03;99462.38;5131958;27;19939;-58
2023/02/04 07:02:50;;;;;;;;;;;;;;;3.92;70.03;99466.69;5124064;27;19939;-59
2023/02/04 07:05:18;;;;;;;;;;;;;;;3.83;71.95;99476.94;5133939;27;19923;-59
2023/02/04 07:07:46;;;;;;;;;;;;;;;3.86;72.36;99476.50;5131347;27;19942;-59
2023/02/04 07:10:15;;;;;;;;;;;;;;;3.78;72.18;99479.53;5126711;27;19991;-60
2023/02/04 07:12:44;;;;;;;;;;;;;;;3.73;72.60;99492.00;5130801;27;19930;-60
2023/02/04 07:15:12;;;;;;;;;;;;;;;3.68;72.82;99484.63;5130163;27;19983;-59
2023/02/04 07:17:41;;;;;;;;;;;;;;;3.68;72.73;99473.88;5130548;27;19931;-60
2023/02/04 07:20:10;;;;;;;;;;;;;;;3.75;72.42;99481.84;5117760;27;19939;-60
2023/02/04 07:22:38;;;;;;;;;;;;;;;3.73;72.89;99494.69;5127041;27;20695;-59
2023/02/04 07:25:06;;;;;;;;;;;;;;;3.83;72.53;99503.00;5129440;27;19935;-59
2023/02/04 07:27:34;;;;;;;;;;;;;;;3.91;72.76;99505.41;5125317;27;19946;-57
2023/02/04 07:30:03;;;;;;;;;;;;;;;3.84;71.78;99516.25;5133756;27;19931;-57
2023/02/04 07:32:32;;;;;;;;;;;;;;;3.83;70.78;99511.91;5120612;27;19931;-54
2023/02/04 07:35:02;;;;;;;;;;;;;;;3.79;68.58;99509.91;5133699;27;19930;-54
2023/02/04 07:37:31;;;;;;;;;;;;;;;3.69;68.32;99510.47;5117720;27;19923;-54
2023/02/04 07:39:59;;;;;;;;;;;;;;;3.72;66.94;99514.53;5126078;27;19931;-54
2023/02/04 07:42:27;;;;;;;;;;;;;;;3.59;67.55;99521.75;5112528;27;19930;-54
2023/02/04 07:45:04;;;;;;;;;;;;;;;3.70;67.23;99530.09;5110655;27;19924;-54
2023/02/04 07:47:32;;;;;;;;;;;;;;;3.71;68.75;99545.97;5124927;27;20364;-54
2023/02/04 07:50:00;;;;;;;;;;;;;;;3.80;67.34;99544.63;5118142;27;20016;-54
2023/02/04 07:52:30;;;;;;;;;;;;;;;3.83;65.72;99552.22;5121470;27;19994;-54
2023/02/04 07:54:58;;;;;;;;;;;;;;;3.77;65.36;99560.38;5128115;27;19924;-54
2023/02/04 07:57:28;;;;;;;;;;;;;;;3.75;66.52;99562.50;5126775;27;19928;-54
2023/02/04 07:59:56;;;;;;;;;;;;;;;3.71;66.27;99555.91;5107821;27;20387;-54
2023/02/04 08:02:24;;;;;;;;;;;;;;;3.73;68.16;99559.19;5131280;27;19969;-54
2023/02/04 08:04:52;;;;;;;;;;;;;;;3.74;64.53;99556.28;5119916;27;19924;-54
2023/02/04 08:07:20;;;;;;;;;;;;;;;3.81;64.89;99559.72;5132899;27;19923;-55
2023/02/04 08:09:49;;;;;;;;;;;;;;;3.87;66.23;99563.34;5123424;27;19928;-54
2023/02/04 08:12:17;;;;;;;;;;;;;;;3.83;65.80;99571.03;5129890;27;19938;-55
2023/02/04 08:14:45;;;;;;;;;;;;;;;3.99;66.22;99579.53;5121747;27;19932;-55
2023/02/04 08:17:13;;;;;;;;;;;;;;;3.99;66.05;99577.66;5130195;27;19930;-55
2023/02/04 08:20:08;;;;;;;;;;;;;;;4.03;65.72;99588.78;5114497;27;20392;-54
2023/02/04 08:22:36;;;;;;;;;;;;;;;3.85;64.96;99601.22;5117089;27;20553;-55
2023/02/04 08:25:06;;;;;;;;;;;;;;;3.77;65.03;99606.09;5117586;27;19924;-54
2023/02/04 08:30:39;;;;;;;;;;;;;;;3.99;64.95;99618.00;4997772;28;19976;-80
2023/02/04 08:33:08;;;;;;;;;;;;;;;4.15;64.68;99625.44;4982938;28;19926;-77
2023/02/04 08:35:37;;;;;;;;;;;;;;;4.06;64.14;99621.44;4991733;28;19937;-80
2023/02/04 08:38:05;;;;;;;;;;;;;;;4.16;64.19;99626.28;5010114;28;19929;-80
2023/02/04 08:40:34;;;;;;;;;;;;;;;4.14;64.10;99631.88;4992762;28;19930;-80
2023/02/04 08:43:03;;;;;;;;;;;;;;;4.05;63.82;99635.94;4992401;28;19937;-80
2023/02/04 08:45:30;;;;;;;;;;;;;;;4.02;63.48;99641.75;4990644;28;19953;-76
2023/02/04 08:47:58;;;;;;;;;;;;;;;4.04;63.60;99645.03;4975726;28;19937;-72
2023/02/04 08:50:27;;;;;;;;;;;;;;;3.91;63.50;99646.03;4973250;28;20024;-76
2023/02/04 08:52:55;;;;;;;;;;;;;;;3.95;63.67;99654.47;4974247;28;19992;-75
2023/02/04 08:55:23;;;;;;;;;;;;;;;4.10;62.23;99649.53;4974649;28;20278;-75
2023/02/04 08:57:52;;;;;;;;;;;;;;;4.03;61.83;99656.03;4988295;28;20396;-75
2023/02/04 09:00:21;;;;;;;;;;;;;;;4.00;61.96;99660.00;4972786;28;20373;-76
2023/02/04 09:02:49;;;;;;;;;;;;;;;4.03;61.06;99659.53;4970215;28;19930;-73
2023/02/04 09:05:17;;;;;;;;;;;;;;;4.15;61.53;99655.03;4984195;28;19930;-76
2023/02/04 09:07:46;;;;;;;;;;;;;;;4.28;61.17;99658.63;4984277;28;19926;-76
2023/02/04 09:10:14;;;;;;;;;;;;;;;4.45;59.73;99673.06;4974426;28;20310;-76
2023/02/04 09:12:42;;;;;;;;;;;;;;;4.28;59.59;99677.44;4988278;28;19930;-77
2023/02/04 09:15:12;;;;;;;;;;;;;;;4.09;58.91;99674.75;4989531;28;19984;-75
2023/02/04 09:17:43;;;;;;;;;;;;;;;4.10;58.83;99680.97;4975868;28;19926;-76
2023/02/04 09:20:12;;;;;;;;;;;;;;;4.26;59.25;99687.59;4979842;28;19926;-76
2023/02/04 09:22:41;;;;;;;;;;;;;;;4.41;59.52;99674.56;4972197;28;19937;-77
2023/02/04 09:25:09;;;;;;;;;;;;;;;4.32;59.10;99682.16;4987379;28;19948;-77
2023/02/04 09:27:37;;;;;;;;;;;;;;;4.37;58.72;99684.16;4972647;28;19938;-76
2023/02/04 09:30:06;;;;;;;;;;;;;;;4.50;58.15;99683.97;4974294;28;19926;-76
2023/02/04 09:32:35;;;;;;;;;;;;;;;4.53;57.23;99686.22;4974030;28;20022;-77
2023/02/04 09:35:05;;;;;;;;;;;;;;;4.56;56.59;99685.75;4975209;28;19953;-76
2023/02/04 09:37:37;;;;;;;;;;;;;;;4.51;56.93;99693.69;4964446;28;20286;-77
2023/02/04 09:40:06;;;;;;;;;;;;;;;4.52;56.14;99711.47;4972347;28;19933;-77
2023/02/04 09:42:34;;;;;;;;;;;;;;;4.31;56.15;99711.97;4973405;28;19945;-76
2023/02/04 09:45:02;;;;;;;;;;;;;;;4.28;56.54;99715.13;4972934;28;19945;-76
2023/02/04 09:47:30;;;;;;;;;;;;;;;4.31;56.58;99722.72;4987459;28;19930;-76
2023/02/04 09:50:24;;;;;;;;;;;;;;;4.29;56.63;99728.34;4988517;28;20373;-76
2023/02/04 09:52:55;;;;;;;;;;;;;;;4.18;55.26;99737.97;4976784;28;19945;-79
2023/02/04 09:55:25;;;;;;;;;;;;;;;4.38;55.71;99753.06;4976017;28;19930;-78
2023/02/04 09:57:53;;;;;;;;;;;;;;;4.35;54.87;99738.19;4985132;28;19933;-79
2023/02/04 10:00:22;;;;;;;;;;;;;;;4.30;55.79;99743.41;4979798;28;19933;-79
2023/02/04 10:03:16;;;;;;;;;;;;;;;4.46;55.98;99744.69;4976517;28;19993;-79
2023/02/04 10:05:45;;;;;;;;;;;;;;;4.62;55.82;99749.44;4976377;28;20338;-80
2023/02/04 10:08:15;;;;;;;;;;;;;;;4.44;55.76;99752.16;4977011;28;19968;-80
2023/02/04 10:10:43;;;;;;;;;;;;;;;4.33;55.17;99755.63;4977265;28;19926;-80
2023/02/04 10:13:14;;;;;;;;;;;;;;;4.42;55.90;99749.72;4973912;28;19926;-80
2023/02/04 10:15:42;;;;;;;;;;;;;;;4.38;56.82;99747.69;4991010;28;19977;-80
2023/02/04 10:18:19;;;;;;;;;;;;;;;4.34;56.01;99752.69;4993158;28;19926;-80
2023/02/04 10:20:47;;;;;;;;;;;;;;;4.38;55.58;99755.78;4972655;28;19949;-75
2023/02/04 10:23:17;;;;;;;;;;;;;;;4.50;54.01;99759.34;4974891;28;19941;-74
2023/02/04 10:25:45;;;;;;;;;;;;;;;4.48;52.58;99753.38;4971575;28;19981;-75
2023/02/04 10:28:14;;;;;;;;;;;;;;;4.58;53.27;99753.66;4975088;28;19941;-75
2023/02/04 10:30:43;;;;;;;;;;;;;;;4.58;52.49;99758.19;4966240;28;20074;-75
2023/02/04 10:33:12;;;;;;;;;;;;;;;4.71;52.03;99753.47;4967063;28;20305;-75
2023/02/04 10:35:45;;;;;;;;;;;;;;;4.87;52.63;99748.50;4968645;28;19933;-74
2023/02/04 10:38:13;;;;;;;;;;;;;;;5.26;51.10;99747.06;4978569;28;19945;-75
2023/02/04 10:40:47;;;;;;;;;;;;;;;5.21;51.78;99752.31;4980560;28;20377;-76
2023/02/04 10:43:17;;;;;;;;;;;;;;;5.10;50.98;99753.94;4962971;28;19926;-76
2023/02/04 10:45:45;;;;;;;;;;;;;;;5.04;50.86;99743.28;4974195;28;19937;-75
2023/02/04 10:48:15;;;;;;;;;;;;;;;5.16;50.97;99755.69;4975509;28;19926;-75
2023/02/04 10:50:44;;;;;;;;;;;;;;;5.03;51.95;99750.53;4972777;28;20017;-79
2023/02/04 10:56:02;;;;;;;;;;;;;;;5.19;52.40;99744.47;4947895;28;19926;-78
2023/02/04 10:58:30;;;;;;;;;;;;;;;5.34;51.20;99745.91;4977050;28;20346;-77
2023/02/04 11:00:58;;;;;;;;;;;;;;;5.26;52.87;99739.78;4978066;28;19930;-79
2023/02/04 11:03:29;;;;;;;;;;;;;;;5.26;52.08;99742.50;4968528;28;19938;-78
2023/02/04 11:05:59;;;;;;;;;;;;;;;4.82;52.62;99742.97;4987574;28;19973;-80
2023/02/04 11:08:28;;;;;;;;;;;;;;;4.75;52.46;99753.03;4996612;28;19910;-79
2023/02/04 11:10:58;;;;;;;;;;;;;;;4.68;52.90;99759.28;4982176;28;19926;-79
2023/02/04 11:14:03;;;;;;;;;;;;;;;4.75;53.63;99753.03;4997533;28;19934;-78
2023/02/04 11:16:31;;;;;;;;;;;;;;;4.94;53.88;99752.72;4996525;28;19937;-77
2023/02/04 11:19:00;;;;;;;;;;;;;;;4.78;53.19;99753.38;4991374;28;19985;-77
2023/02/04 11:21:29;;;;;;;;;;;;;;;4.77;54.43;99753.59;4986945;28;20386;-78
2023/02/04 11:24:04;;;;;;;;;;;;;;;4.97;52.46;99751.44;4988530;28;20452;-78
2023/02/04 11:26:33;;;;;;;;;;;;;;;4.88;51.47;99756.34;4979474;28;19926;-77
2023/02/04 11:32:30;;;;;;;;;;;;;;;4.99;53.21;99750.16;4977709;28;19957;-76
2023/02/04 11:35:17;;;;;;;;;;;;;;;4.98;52.71;99753.91;4988575;28;19926;-77
2023/02/04 11:37:45;;;;;;;;;;;;;;;4.85;52.67;99762.19;4975523;28;19926;-76
2023/02/04 11:40:37;;;;;;;;;;;;;;;4.56;52.99;99760.28;4982146;28;19927;-77
2023/02/04 11:43:09;;;;;;;;;;;;;;;4.56;53.30;99758.44;4956991;28;20292;-76
2023/02/04 11:45:38;;;;;;;;;;;;;;;4.72;54.00;99768.56;4981882;28;19996;-76
2023/02/04 11:48:10;;;;;;;;;;;;;;;4.76;52.66;99766.25;4989054;28;19926;-76
2023/02/04 11:50:40;;;;;;;;;;;;;;;4.78;53.01;99760.63;4976998;28;20429;-74
2023/02/04 11:53:09;;;;;;;;;;;;;;;4.73;52.80;99764.81;4977179;28;19926;-74
2023/02/04 11:55:43;;;;;;;;;;;;;;;4.68;54.40;99766.53;4975773;28;19933;-74
2023/02/04 11:58:14;;;;;;;;;;;;;;;4.73;52.82;99764.81;4989086;28;20024;-74
2023/02/04 12:00:43;;;;;;;;;;;;;;;4.81;53.39;99770.94;4973862;28;20001;-74
2023/02/04 12:03:35;;;;;;;;;;;;;;;4.89;53.19;99767.91;4973673;28;19926;-74
2023/02/04 12:06:03;;;;;;;;;;;;;;;4.97;54.14;99767.63;4976309;28;19930;-78
2023/02/04 12:08:32;;;;;;;;;;;;;;;4.99;52.60;99760.13;4974746;28;20416;-74
2023/02/04 12:11:05;;;;;;;;;;;;;;;4.91;53.84;99768.53;4989873;28;20332;-74
2023/02/04 12:13:33;;;;;;;;;;;;;;;4.88;53.53;99779.75;4967191;28;19941;-74
2023/02/04 12:16:02;;;;;;;;;;;;;;;4.75;53.88;99774.56;4970895;28;19927;-74
2023/02/04 12:18:31;;;;;;;;;;;;;;;4.67;53.45;99778.38;4970687;28;19933;-78
2023/02/04 12:21:25;;;;;;;;;;;;;;;4.61;52.72;99787.34;4990880;28;19926;-80
2023/02/04 12:23:54;;;;;;;;;;;;;;;4.63;52.42;99783.38;4973959;28;19927;-75
2023/02/04 12:26:22;;;;;;;;;;;;;;;4.42;52.51;99790.09;4971231;28;20028;-74
2023/02/04 12:28:50;;;;;;;;;;;;;;;4.45;54.26;99788.78;4972045;28;19934;-74
2023/02/04 12:31:20;;;;;;;;;;;;;;;4.55;52.94;99785.56;4973903;28;19934;-74
2023/02/04 12:33:48;;;;;;;;;;;;;;;4.41;52.28;99787.59;4981556;28;20286;-76
2023/02/04 12:36:17;;;;;;;;;;;;;;;4.36;51.86;99798.22;4987419;28;19973;-74
2023/02/04 12:38:47;;;;;;;;;;;;;;;4.35;51.42;99796.56;4969935;28;19926;-74
2023/02/04 12:41:15;;;;;;;;;;;;;;;4.38;50.73;99793.44;4985733;28;20020;-80
2023/02/04 12:43:43;;;;;;;;;;;;;;;4.37;51.33;99794.50;4976082;28;19926;-79
2023/02/04 12:46:11;;;;;;;;;;;;;;;4.53;50.66;99793.88;4987504;28;19930;-78
2023/02/04 12:48:41;;;;;;;;;;;;;;;4.43;50.52;99794.41;4975597;28;19986;-79
2023/02/04 12:51:09;;;;;;;;;;;;;;;4.63;50.49;99802.22;4995785;28;19930;-79
2023/02/04 12:53:38;;;;;;;;;;;;;;;4.59;50.98;99797.53;4984196;28;19926;-79
2023/02/04 12:56:06;;;;;;;;;;;;;;;4.57;50.25;99800.44;5039470;23;19925;-57
2023/02/04 12:58:34;;;;;;;;;;;;;;;4.53;49.90;99799.28;5047258;28;19925;-56
2023/02/04 13:01:02;;;;;;;;;;;;;;;4.65;48.90;99797.44;5048489;28;20369;-57
2023/02/04 13:03:31;;;;;;;;;;;;;;;4.71;48.99;99804.63;5047068;28;20074;-56
2023/02/04 13:06:01;;;;;;;;;;;;;;;4.67;49.29;99792.66;5045666;28;20418;-57
2023/02/04 13:08:29;;;;;;;;;;;;;;;4.57;49.33;99802.31;5049344;28;19924;-57
2023/02/04 13:10:57;;;;;;;;;;;;;;;4.72;50.64;99800.88;5051725;28;19925;-56
2023/02/04 13:13:25;;;;;;;;;;;;;;;4.78;49.59;99798.31;5047023;28;19932;-57
2023/02/04 13:15:53;;;;;;;;;;;;;;;4.84;50.65;99800.91;5045006;28;20396;-57
2023/02/04 13:18:21;;;;;;;;;;;;;;;4.91;49.61;99796.28;5048577;28;19929;-57
2023/02/04 13:20:49;;;;;;;;;;;;;;;4.95;48.85;99807.41;5039837;28;19932;-57
2023/02/04 13:23:19;;;;;;;;;;;;;;;5.15;48.80;99802.56;5024895;28;19933;-57